createdAt,value
2022-09-07T00:01:29.445Z,5.78
2022-09-07T00:03:57.104Z,6.05
2022-09-07T00:06:25.162Z,6.40
2022-09-07T00:08:52.849Z,5.85
2022-09-07T00:11:20.833Z,6.00
2022-09-07T00:13:49.224Z,6.70
2022-09-07T00:16:19.012Z,6.35
2022-09-07T00:18:46.854Z,5.50
2022-09-07T00:21:16.011Z,5.10
2022-09-07T00:23:43.770Z,4.90
2022-09-07T00:26:12.249Z,5.00
2022-09-07T00:28:40.425Z,4.53
2022-09-07T00:31:11.164Z,5.47
2022-09-07T00:33:40.518Z,6.25
2022-09-07T00:36:08.245Z,6.20
2022-09-07T00:38:35.998Z,6.82
2022-09-07T00:41:04.142Z,6.55
2022-09-07T00:43:32.946Z,7.43
2022-09-07T00:46:00.613Z,6.78
2022-09-07T00:48:31.356Z,7.97
2022-09-07T00:51:02.216Z,7.50
2022-09-07T00:53:31.385Z,7.72
2022-09-07T00:56:00.840Z,7.22
2022-09-07T00:58:28.891Z,7.70
2022-09-07T01:00:56.510Z,7.07
2022-09-07T01:03:25.548Z,7.18
2022-09-07T01:05:57.312Z,7.18
2022-09-07T01:08:26.421Z,7.20
2022-09-07T01:10:54.166Z,7.30
2022-09-07T01:13:21.886Z,7.47
2022-09-07T01:15:54.897Z,7.45
2022-09-07T01:18:26.839Z,6.93
2022-09-07T01:21:15.237Z,6.70
2022-09-07T01:24:03.141Z,7.25
2022-09-07T01:26:51.722Z,8.30
2022-09-07T01:29:23.246Z,7.45
2022-09-07T01:31:55.367Z,7.22
2022-09-07T01:34:23.604Z,7.55
2022-09-07T01:36:55.141Z,6.95
2022-09-07T01:39:24.505Z,6.70
2022-09-07T01:41:55.420Z,6.97
2022-09-07T01:44:25.897Z,6.63
2022-09-07T01:46:54.917Z,6.13
2022-09-07T01:49:24.367Z,6.28
2022-09-07T01:51:54.261Z,6.00
2022-09-07T01:54:25.351Z,5.20
2022-09-07T01:56:54.771Z,5.45
2022-09-07T01:59:24.663Z,5.55
2022-09-07T02:01:57.136Z,5.80
2022-09-07T02:04:28.370Z,5.60
2022-09-07T02:06:57.881Z,6.20
2022-09-07T02:09:32.018Z,5.88
2022-09-07T02:12:03.101Z,5.93
2022-09-07T02:14:32.339Z,5.85
2022-09-07T02:17:02.842Z,5.25
2022-09-07T02:19:33.608Z,5.03
2022-09-07T02:22:04.342Z,4.80
2022-09-07T02:24:35.251Z,5.70
2022-09-07T02:27:05.168Z,5.50
2022-09-07T02:29:32.799Z,5.55
2022-09-07T02:32:01.794Z,5.43
2022-09-07T02:34:29.577Z,5.63
2022-09-07T02:36:58.247Z,5.57
2022-09-07T02:39:26.059Z,5.88
2022-09-07T02:41:53.778Z,5.45
2022-09-07T02:44:22.460Z,6.15
2022-09-07T02:47:10.419Z,5.93
2022-09-07T02:49:46.374Z,6.03
2022-09-07T02:52:21.063Z,5.72
2022-09-07T02:54:54.788Z,6.00
2022-09-07T02:57:27.411Z,6.20
2022-09-07T03:00:00.904Z,7.10
2022-09-07T03:02:32.606Z,6.40
2022-09-07T03:05:03.169Z,6.07
2022-09-07T03:07:35.664Z,6.22
2022-09-07T03:10:04.192Z,6.20
2022-09-07T03:12:39.809Z,6.80
2022-09-07T03:15:07.878Z,6.30
2022-09-07T03:17:36.909Z,6.65
2022-09-07T03:20:04.841Z,6.68
2022-09-07T03:22:33.680Z,6.50
2022-09-07T03:25:01.493Z,6.47
2022-09-07T03:27:29.097Z,6.10
2022-09-07T03:29:56.700Z,6.45
2022-09-07T03:32:24.299Z,6.03
2022-09-07T03:34:53.770Z,5.50
2022-09-07T04:08:14.377Z,5.35
2022-09-07T04:10:42.370Z,5.40
2022-09-07T04:13:10.340Z,5.55
2022-09-07T04:15:37.934Z,5.80
2022-09-07T04:18:05.704Z,6.40
2022-09-07T04:20:33.390Z,6.15
2022-09-07T04:23:01.022Z,6.35
2022-09-07T04:25:30.046Z,5.72
2022-09-07T04:27:58.276Z,7.53
2022-09-07T04:30:26.084Z,6.85
2022-09-07T04:32:53.708Z,6.82
2022-09-07T04:35:21.284Z,5.78
2022-09-07T04:37:48.882Z,6.63
2022-09-07T04:40:16.566Z,6.68
2022-09-07T04:42:45.567Z,6.15
2022-09-07T04:45:13.229Z,6.60
2022-09-07T04:47:40.823Z,5.95
2022-09-07T04:50:09.128Z,5.80
2022-09-07T04:52:36.746Z,5.53
2022-09-07T04:55:04.868Z,6.05
2022-09-07T04:57:32.499Z,4.65
2022-09-07T05:00:01.644Z,4.45
2022-09-07T05:02:29.289Z,5.18
2022-09-07T05:05:00.683Z,5.57
2022-09-07T05:07:30.260Z,5.45
2022-09-07T05:09:58.033Z,5.32
2022-09-07T05:12:25.860Z,4.53
2022-09-07T05:14:53.979Z,4.43
2022-09-07T05:17:22.997Z,5.63
2022-09-07T05:19:50.705Z,6.00
2022-09-07T05:22:19.317Z,6.00
2022-09-07T05:24:48.401Z,6.65
2022-09-07T05:27:15.966Z,6.05
2022-09-07T05:32:35.531Z,6.13
2022-09-07T05:35:03.190Z,6.38
2022-09-07T05:37:30.846Z,6.88
2022-09-07T05:39:58.495Z,6.25
2022-09-07T05:42:26.828Z,6.20
2022-09-07T05:44:54.541Z,6.75
2022-09-07T05:47:22.186Z,6.38
2022-09-07T05:49:53.001Z,6.82
2022-09-07T05:52:24.084Z,6.68
2022-09-07T05:54:54.363Z,6.28
2022-09-07T05:57:24.232Z,5.70
2022-09-07T05:59:51.839Z,6.50
2022-09-07T06:02:19.589Z,6.70
2022-09-07T06:04:47.764Z,6.85
2022-09-07T06:07:23.886Z,6.30
2022-09-07T06:12:39.201Z,7.13
2022-09-07T06:15:07.389Z,6.85
2022-09-07T06:17:35.434Z,8.43
2022-09-07T06:20:03.620Z,6.55
2022-09-07T06:22:32.688Z,6.13
2022-09-07T06:25:00.443Z,6.13
2022-09-07T06:27:28.590Z,6.03
2022-09-07T06:29:56.199Z,5.90
2022-09-07T06:35:14.598Z,6.30
2022-09-07T06:37:43.932Z,5.88
2022-09-07T06:40:12.339Z,6.00
2022-09-07T06:42:40.257Z,5.82
2022-09-07T06:45:10.086Z,5.57
2022-09-07T06:47:37.724Z,5.65
2022-09-07T06:50:05.531Z,4.85
2022-09-07T06:55:22.150Z,5.20
2022-09-07T06:57:52.696Z,5.13
2022-09-07T07:00:20.605Z,4.95
2022-09-07T07:02:48.341Z,4.57
2022-09-07T07:05:16.059Z,4.70
2022-09-07T07:07:43.799Z,4.65
2022-09-07T07:10:11.403Z,4.25
2022-09-07T07:15:08.850Z,4.05
2022-09-07T07:17:37.140Z,4.85
2022-09-07T07:20:04.967Z,4.55
2022-09-07T07:22:47.894Z,4.07
2022-09-07T07:25:16.487Z,4.60
2022-09-07T07:27:46.441Z,4.25
2022-09-07T07:30:14.699Z,4.10
2022-09-07T07:32:42.797Z,4.35
2022-09-07T07:35:10.971Z,4.00
2022-09-07T07:37:38.700Z,4.18
2022-09-07T07:42:42.886Z,4.00
2022-09-07T07:47:59.754Z,4.13
2022-09-07T07:50:31.637Z,3.63
2022-09-07T07:55:48.198Z,2.88
2022-09-07T07:58:15.821Z,2.80
2022-09-07T08:00:54.235Z,2.17
2022-09-07T08:03:23.098Z,2.60
2022-09-07T08:05:50.754Z,2.85
2022-09-07T08:08:18.324Z,2.55
2022-09-07T08:10:47.941Z,2.50
2022-09-07T08:13:15.752Z,2.60
2022-09-07T08:15:46.390Z,3.10
2022-09-07T08:18:14.762Z,2.60
2022-09-07T08:20:42.590Z,2.83
2022-09-07T08:23:10.925Z,2.50
2022-09-07T08:25:38.563Z,2.72
2022-09-07T08:28:06.418Z,3.10
2022-09-07T08:30:33.893Z,2.70
2022-09-07T08:33:02.808Z,2.70
2022-09-07T08:35:30.296Z,2.97
2022-09-07T08:37:57.866Z,2.85
2022-09-07T08:40:25.350Z,2.50
2022-09-07T08:43:02.801Z,3.30
2022-09-07T08:45:32.294Z,2.75
2022-09-07T08:47:59.933Z,3.15
2022-09-07T08:50:33.600Z,2.92
2022-09-07T08:53:03.712Z,2.88
2022-09-07T08:55:32.910Z,2.45
2022-09-07T08:58:05.019Z,2.85
2022-09-07T09:00:32.804Z,3.38
2022-09-07T09:05:55.760Z,3.05
2022-09-07T09:08:41.303Z,3.45
2022-09-07T09:11:11.717Z,2.70
2022-09-07T09:13:52.102Z,2.60
2022-09-07T09:16:22.181Z,3.05
2022-09-07T09:18:55.485Z,2.78
2022-09-07T09:21:24.887Z,2.78
2022-09-07T09:23:53.812Z,2.83
2022-09-07T09:26:23.821Z,3.00
2022-09-07T09:28:51.529Z,2.40
2022-09-07T09:31:20.298Z,2.92
2022-09-07T09:34:12.885Z,2.83
2022-09-07T09:36:46.719Z,2.60
2022-09-07T09:39:42.644Z,2.55
2022-09-07T09:42:17.209Z,2.60
2022-09-07T09:44:45.525Z,2.67
2022-09-07T09:47:31.621Z,2.85
2022-09-07T09:50:00.253Z,2.70
2022-09-07T09:52:32.048Z,2.47
2022-09-07T09:55:30.217Z,2.55
2022-09-07T10:01:21.146Z,3.20
2022-09-07T10:06:16.229Z,2.72
2022-09-07T10:08:53.075Z,2.90
2022-09-07T10:14:28.877Z,2.30
2022-09-07T10:16:56.654Z,2.35
2022-09-07T10:19:26.736Z,2.90
2022-09-07T10:21:56.663Z,2.53
2022-09-07T10:24:26.822Z,2.50
2022-09-07T10:26:54.443Z,2.67
2022-09-07T10:29:28.701Z,2.38
2022-09-07T10:31:59.774Z,2.47
2022-09-07T10:34:31.183Z,2.78
2022-09-07T10:37:02.861Z,2.53
2022-09-07T10:39:35.600Z,2.65
2022-09-07T10:42:06.248Z,2.22
2022-09-07T10:44:42.219Z,2.78
2022-09-07T10:47:13.571Z,2.70
2022-09-07T10:50:22.063Z,3.13
2022-09-07T10:52:36.085Z,2.80
2022-09-07T10:55:08.550Z,2.78
2022-09-07T10:57:40.448Z,2.65
2022-09-07T11:00:11.777Z,2.65
2022-09-07T11:05:41.088Z,3.10
2022-09-07T11:08:15.967Z,2.78
2022-09-07T11:10:47.522Z,3.25
2022-09-07T11:13:17.506Z,2.50
2022-09-07T11:15:47.923Z,3.65
2022-09-07T11:18:17.949Z,2.65
2022-09-07T11:20:46.570Z,2.60
2022-09-07T11:23:16.872Z,2.63
2022-09-07T11:25:53.222Z,3.10
2022-09-07T11:28:22.984Z,2.60
2022-09-07T11:30:53.782Z,3.10
2022-09-07T11:33:27.048Z,2.47
2022-09-07T11:35:58.631Z,3.22
2022-09-07T11:38:29.499Z,2.60
2022-09-07T11:41:06.303Z,2.92
2022-09-07T11:43:36.883Z,3.25
2022-09-07T11:46:06.586Z,3.50
2022-09-07T11:48:36.641Z,2.75
2022-09-07T11:51:06.700Z,3.22
2022-09-07T11:53:35.384Z,2.83
2022-09-07T11:56:07.061Z,2.83
2022-09-07T11:58:58.382Z,3.20
2022-09-07T12:01:31.672Z,3.08
2022-09-07T12:04:15.185Z,2.53
2022-09-07T12:06:58.214Z,2.72
2022-09-07T12:09:36.323Z,2.72
2022-09-07T12:12:13.159Z,2.42
2022-09-07T12:14:47.900Z,2.53
2022-09-07T12:17:23.857Z,2.58
2022-09-07T12:20:10.231Z,2.53
2022-09-07T12:22:38.068Z,2.47
2022-09-07T12:25:09.103Z,2.20
2022-09-07T12:27:39.570Z,2.60
2022-09-07T12:30:25.787Z,2.45
2022-09-07T12:33:04.468Z,2.63
2022-09-07T12:35:41.541Z,2.50
2022-09-07T12:38:24.491Z,2.17
2022-09-07T12:41:00.106Z,2.75
2022-09-07T12:43:47.740Z,2.53
2022-09-07T12:46:19.750Z,2.30
2022-09-07T12:48:50.459Z,2.17
2022-09-07T12:54:17.861Z,2.40
2022-09-07T12:56:46.862Z,2.53
2022-09-07T12:59:24.630Z,3.00
2022-09-07T13:01:57.640Z,2.30
2022-09-07T13:04:33.317Z,2.10
2022-09-07T13:07:10.348Z,2.22
2022-09-07T13:09:38.524Z,2.40
2022-09-07T13:15:32.583Z,2.00
2022-09-07T13:18:00.687Z,2.40
2022-09-07T13:20:36.377Z,2.30
2022-09-07T13:23:21.636Z,2.38
2022-09-07T13:25:50.600Z,2.05
2022-09-07T13:28:40.122Z,2.05
2022-09-07T13:31:15.691Z,2.20
2022-09-07T13:33:48.237Z,2.35
2022-09-07T13:36:21.954Z,2.00
2022-09-07T13:38:51.135Z,2.22
2022-09-07T13:41:20.130Z,2.03
2022-09-07T13:43:48.969Z,2.10
2022-09-07T13:46:25.421Z,1.90
2022-09-07T13:48:56.125Z,2.13
2022-09-07T13:51:26.034Z,1.98
2022-09-07T13:54:01.640Z,2.30
2022-09-07T13:56:35.696Z,2.13
2022-09-07T13:59:12.653Z,2.10
2022-09-07T14:01:46.154Z,2.10
2022-09-07T14:04:20.711Z,2.00
2022-09-07T14:06:48.197Z,2.25
2022-09-07T14:09:16.912Z,1.83
2022-09-07T14:11:45.153Z,2.05
2022-09-07T14:14:14.121Z,2.30
2022-09-07T14:16:43.659Z,1.88
2022-09-07T14:19:21.155Z,1.80
2022-09-07T14:22:06.194Z,1.80
2022-09-07T14:24:41.335Z,2.45
2022-09-07T14:27:23.077Z,2.38
2022-09-07T14:29:50.626Z,2.20
2022-09-07T14:32:19.948Z,1.80
2022-09-07T14:34:49.702Z,2.13
2022-09-07T14:37:18.267Z,1.80
2022-09-07T14:39:47.139Z,1.65
2022-09-07T14:42:17.540Z,1.90
2022-09-07T14:44:45.366Z,1.83
2022-09-07T14:47:22.860Z,2.05
2022-09-07T14:49:53.146Z,2.17
2022-09-07T14:52:23.116Z,1.95
2022-09-07T14:54:52.276Z,1.70
2022-09-07T14:57:27.361Z,2.03
2022-09-07T14:59:57.229Z,1.98
2022-09-07T15:02:27.511Z,2.10
2022-09-07T15:05:09.896Z,2.50
2022-09-07T15:07:40.326Z,2.00
2022-09-07T15:10:14.323Z,1.90
2022-09-07T15:12:43.035Z,1.95
2022-09-07T15:15:11.320Z,1.85
2022-09-07T15:17:43.521Z,2.38
2022-09-07T15:20:31.830Z,1.90
2022-09-07T15:23:00.927Z,2.22
2022-09-07T15:25:30.628Z,2.20
2022-09-07T15:27:58.394Z,1.90
2022-09-07T15:30:28.281Z,2.05
2022-09-07T15:32:57.337Z,1.98
2022-09-07T15:35:25.456Z,2.25
2022-09-07T15:41:03.650Z,1.80
2022-09-07T15:43:31.298Z,1.90
2022-09-07T15:45:58.987Z,1.77
2022-09-07T15:48:26.766Z,2.13
2022-09-07T15:51:01.774Z,1.95
2022-09-07T15:56:20.176Z,1.77
2022-09-07T15:58:52.051Z,1.90
2022-09-07T16:04:07.161Z,1.83
2022-09-07T16:06:35.825Z,2.05
2022-09-07T16:09:06.127Z,2.33
2022-09-07T16:11:35.612Z,1.90
2022-09-07T16:14:03.892Z,1.95
2022-09-07T16:19:21.003Z,1.70
2022-09-07T16:21:48.682Z,2.22
2022-09-07T16:24:16.333Z,1.77
2022-09-07T16:26:45.354Z,2.17
2022-09-07T16:29:12.886Z,2.15
2022-09-07T16:32:43.926Z,2.00
2022-09-07T16:34:27.946Z,2.20
2022-09-07T16:36:55.539Z,1.80
2022-09-07T16:39:23.158Z,1.80
2022-09-07T16:41:52.439Z,2.10
2022-09-07T16:44:19.976Z,2.13
2022-09-07T16:46:47.465Z,2.05
2022-09-07T16:49:16.467Z,1.92
2022-09-07T16:51:45.678Z,2.20
2022-09-07T16:54:13.670Z,2.10
2022-09-07T16:56:41.254Z,2.00
2022-09-07T16:59:13.713Z,2.00
2022-09-07T17:01:41.306Z,1.80
2022-09-07T17:04:11.181Z,1.83
2022-09-07T17:06:39.562Z,1.77
2022-09-07T17:09:07.504Z,1.70
2022-09-07T17:11:35.860Z,1.70
2022-09-07T17:14:05.385Z,2.03
2022-09-07T17:16:35.200Z,1.83
2022-09-07T17:21:52.789Z,1.80
2022-09-07T17:24:20.366Z,1.77
2022-09-07T17:26:47.814Z,2.20
2022-09-07T17:29:15.778Z,2.03
2022-09-07T17:34:32.322Z,1.70
2022-09-07T17:37:01.141Z,2.10
2022-09-07T17:39:29.012Z,1.80
2022-09-07T17:41:56.725Z,2.25
2022-09-07T17:44:24.227Z,1.75
2022-09-07T17:46:53.136Z,1.98
2022-09-07T17:49:20.593Z,2.17
2022-09-07T17:51:48.303Z,2.05
2022-09-07T17:54:17.634Z,2.13
2022-09-07T17:56:45.804Z,2.00
2022-09-07T18:02:02.292Z,1.95
2022-09-07T18:04:29.874Z,2.63
2022-09-07T18:06:57.397Z,2.10
2022-09-07T18:09:24.932Z,2.35
2022-09-07T18:11:52.473Z,2.10
2022-09-07T18:14:20.088Z,2.03
2022-09-07T18:16:49.254Z,2.30
2022-09-07T18:19:18.950Z,2.20
2022-09-07T18:21:47.865Z,2.33
2022-09-07T18:24:17.620Z,2.13
2022-09-07T18:26:50.200Z,2.80
2022-09-07T18:29:28.706Z,2.13
2022-09-07T18:31:57.778Z,2.28
2022-09-07T18:34:28.468Z,2.03
2022-09-07T18:36:57.198Z,2.00
2022-09-07T18:39:24.754Z,2.33
2022-09-07T18:41:53.304Z,2.15
2022-09-07T18:47:08.811Z,2.80
2022-09-07T18:49:38.019Z,2.55
2022-09-07T18:54:53.013Z,2.30
2022-09-07T18:57:20.666Z,2.40
2022-09-07T18:59:48.327Z,2.78
2022-09-07T19:02:16.047Z,2.92
2022-09-07T19:07:32.934Z,2.88
2022-09-07T19:10:00.960Z,2.90
2022-09-07T19:12:28.456Z,2.80
2022-09-07T19:14:55.993Z,3.00
2022-09-07T19:17:24.693Z,3.55
2022-09-07T19:19:53.751Z,2.50
2022-09-07T19:22:21.287Z,2.67
2022-09-07T19:24:48.785Z,2.97
2022-09-07T19:27:16.250Z,2.53
2022-09-07T19:29:43.784Z,2.20
2022-09-07T19:32:13.004Z,2.30
2022-09-07T19:34:41.886Z,2.03
2022-09-07T19:37:11.856Z,2.10
2022-09-07T19:39:39.677Z,2.00
2022-09-07T19:42:07.540Z,2.10
2022-09-07T19:44:35.070Z,2.65
2022-09-07T19:47:02.836Z,2.22
2022-09-07T19:49:31.861Z,2.05
2022-09-07T19:51:59.384Z,2.00
2022-09-07T19:54:28.429Z,2.00
2022-09-07T19:56:55.951Z,2.15
2022-09-07T19:59:24.342Z,2.30
2022-09-07T20:01:53.766Z,2.13
2022-09-07T20:04:23.388Z,2.40
2022-09-07T20:06:52.060Z,2.33
2022-09-07T20:09:20.274Z,2.22
2022-09-07T20:11:49.368Z,2.05
2022-09-07T20:14:17.315Z,2.70
2022-09-07T20:16:45.048Z,2.17
2022-09-07T20:19:14.466Z,2.42
2022-09-07T20:21:42.480Z,2.10
2022-09-07T20:24:11.663Z,2.35
2022-09-07T20:26:39.190Z,2.30
2022-09-07T20:29:26.882Z,2.20
2022-09-07T20:31:55.681Z,2.20
2022-09-07T20:34:23.206Z,2.40
2022-09-07T20:36:50.791Z,2.38
2022-09-07T20:39:18.807Z,2.30
2022-09-07T20:41:46.368Z,1.98
2022-09-07T20:44:15.592Z,1.77
2022-09-07T20:46:43.322Z,2.05
2022-09-07T20:49:11.105Z,1.70
2022-09-07T20:51:38.726Z,1.92
2022-09-07T20:54:07.076Z,2.05
2022-09-07T20:56:34.719Z,1.90
2022-09-07T20:59:03.075Z,1.70
2022-09-07T21:01:32.786Z,1.85
2022-09-07T21:04:00.947Z,1.95
2022-09-07T21:06:29.131Z,2.03
2022-09-07T21:08:57.386Z,1.60
2022-09-07T21:11:26.111Z,1.90
2022-09-07T21:13:57.034Z,2.22
2022-09-07T21:16:24.637Z,2.00
2022-09-07T21:18:57.025Z,2.20
2022-09-07T21:21:38.584Z,2.50
2022-09-07T21:24:07.043Z,1.90
2022-09-07T21:26:34.927Z,2.42
2022-09-07T21:29:03.411Z,1.88
2022-09-07T21:31:32.184Z,1.90
2022-09-07T21:34:01.734Z,2.00
2022-09-07T21:36:29.440Z,2.28
2022-09-07T21:38:57.033Z,2.30
2022-09-07T21:41:25.375Z,2.38
2022-09-07T21:43:55.190Z,2.30
2022-09-07T21:46:22.751Z,2.33
2022-09-07T21:48:50.265Z,2.35
2022-09-07T21:51:19.382Z,2.17
2022-09-07T21:53:51.500Z,2.10
2022-09-07T21:56:19.173Z,1.95
2022-09-07T21:58:46.658Z,1.77
2022-09-07T22:01:16.899Z,1.83
2022-09-07T22:03:45.253Z,2.10
2022-09-07T22:06:13.225Z,2.00
2022-09-07T22:08:42.782Z,2.42
2022-09-07T22:11:11.184Z,1.80
2022-09-07T22:13:39.097Z,2.55
2022-09-07T22:16:06.829Z,1.90
2022-09-07T22:18:34.681Z,2.22
2022-09-07T22:21:02.898Z,2.38
2022-09-07T22:23:31.103Z,2.17
2022-09-07T22:25:59.993Z,2.30
2022-09-07T22:28:29.412Z,2.47
2022-09-07T22:30:57.032Z,2.40
2022-09-07T22:33:24.543Z,2.50
2022-09-07T22:35:52.036Z,2.30
2022-09-07T22:38:19.475Z,2.45
2022-09-07T22:40:47.231Z,2.50
2022-09-07T22:43:16.075Z,2.50
2022-09-07T22:45:43.564Z,2.40
2022-09-07T22:48:11.087Z,2.60
2022-09-07T22:50:38.534Z,2.67
2022-09-07T22:53:06.013Z,2.60
2022-09-07T22:55:33.632Z,2.55
2022-09-07T22:58:01.178Z,3.13
2022-09-07T23:00:30.056Z,3.22
2022-09-07T23:02:57.589Z,3.28
2022-09-07T23:05:25.184Z,3.10
2022-09-07T23:07:52.713Z,3.20
2022-09-07T23:10:20.329Z,3.20
2022-09-07T23:12:47.852Z,3.60
2022-09-07T23:15:15.539Z,3.28
2022-09-07T23:17:44.400Z,3.50
2022-09-07T23:20:11.991Z,3.53
2022-09-07T23:22:39.575Z,4.07
2022-09-07T23:25:07.517Z,3.90
2022-09-07T23:27:35.509Z,3.88
2022-09-07T23:30:03.155Z,3.97
2022-09-07T23:32:30.761Z,3.47
2022-09-07T23:34:59.682Z,4.13
2022-09-07T23:37:27.274Z,3.65
2022-09-07T23:39:54.828Z,3.78
2022-09-07T23:42:22.771Z,3.78
2022-09-07T23:44:50.301Z,4.25
2022-09-07T23:47:17.905Z,4.22
2022-09-07T23:49:45.432Z,3.47
2022-09-07T23:52:14.364Z,3.80
2022-09-07T23:54:42.740Z,3.90
2022-09-07T23:57:10.288Z,4.00
2022-09-07T23:59:37.808Z,3.88
